Aviation Digital Data Service (ADDS)

Output produced by METARs form (0140 UTC 01 August 2014)
found at http://www.aviationweather.gov/adds/metars/
 
KCRQ 010053Z AUTO 25007KT 10SM CLR 23/19 A2986 RMK AO2 SLP110 T02280189 TSNO
KCRQ 312353Z AUTO 25007KT 10SM CLR 24/18 A2986 RMK AO2 SLP109 T02440183 10256 20239 56011 TSNO
KCRQ 312253Z AUTO 25008KT 10SM CLR 25/18 A2987 RMK AO2 SLP112 T02500178 TSNO
KCRQ 312153Z 25007KT 10SM CLR 26/18 A2989 RMK AO2 SLP116 T02560183
KCRQ 312334Z 0100/0124 26007KT P6SM SCT200 
     FM010100 VRB05KT P6SM FEW007 SCT200 
     FM010800 VRB03KT P6SM OVC007 
     FM011400 VRB03KT P6SM OVC010 
     FM011530 VRB03KT P6SM SCT013 SCT200 
     FM012000 24009KT P6SM FEW013 SCT200